sensor_id;sensor_type;location;lat;lon;timestamp;P1;durP1;ratioP1;P2;durP2;ratioP2
51174;SDS011;37240;50.104;20.010;2023-03-14T00:04:04;2.60;;;1.67;;
51174;SDS011;37240;50.104;20.010;2023-03-14T00:09:05;2.78;;;2.03;;
51174;SDS011;37240;50.104;20.010;2023-03-14T00:14:06;2.78;;;1.92;;
51174;SDS011;37240;50.104;20.010;2023-03-14T00:19:06;7.03;;;1.90;;
51174;SDS011;37240;50.104;20.010;2023-03-14T00:24:07;2.38;;;1.38;;
51174;SDS011;37240;50.104;20.010;2023-03-14T00:29:08;1.75;;;1.45;;
51174;SDS011;37240;50.104;20.010;2023-03-14T00:34:09;2.58;;;2.25;;
51174;SDS011;37240;50.104;20.010;2023-03-14T00:39:09;2.05;;;1.77;;
51174;SDS011;37240;50.104;20.010;2023-03-14T00:44:10;3.42;;;2.10;;
51174;SDS011;37240;50.104;20.010;2023-03-14T00:49:10;4.03;;;2.33;;
51174;SDS011;37240;50.104;20.010;2023-03-14T00:54:11;4.35;;;2.25;;
51174;SDS011;37240;50.104;20.010;2023-03-14T00:59:12;6.43;;;2.03;;
51174;SDS011;37240;50.104;20.010;2023-03-14T01:04:12;3.85;;;1.95;;
51174;SDS011;37240;50.104;20.010;2023-03-14T01:09:13;3.45;;;2.08;;
51174;SDS011;37240;50.104;20.010;2023-03-14T01:14:14;6.13;;;2.22;;
51174;SDS011;37240;50.104;20.010;2023-03-14T01:19:14;4.57;;;1.88;;
51174;SDS011;37240;50.104;20.010;2023-03-14T01:24:15;4.13;;;1.85;;
51174;SDS011;37240;50.104;20.010;2023-03-14T01:29:15;3.15;;;1.80;;
51174;SDS011;37240;50.104;20.010;2023-03-14T01:34:16;4.15;;;2.22;;
51174;SDS011;37240;50.104;20.010;2023-03-14T01:39:16;2.90;;;1.90;;
51174;SDS011;37240;50.104;20.010;2023-03-14T01:44:17;7.47;;;2.50;;
51174;SDS011;37240;50.104;20.010;2023-03-14T01:54:25;2.35;;;2.00;;
51174;SDS011;37240;50.104;20.010;2023-03-14T01:59:30;3.35;;;2.00;;
51174;SDS011;37240;50.104;20.010;2023-03-14T02:04:32;4.13;;;2.30;;
51174;SDS011;37240;50.104;20.010;2023-03-14T02:09:35;5.40;;;3.03;;
51174;SDS011;37240;50.104;20.010;2023-03-14T02:14:38;5.90;;;1.75;;
51174;SDS011;37240;50.104;20.010;2023-03-14T02:19:46;3.55;;;2.10;;
51174;SDS011;37240;50.104;20.010;2023-03-14T02:25:14;2.97;;;2.25;;
51174;SDS011;37240;50.104;20.010;2023-03-14T02:30:25;8.57;;;2.67;;
51174;SDS011;37240;50.104;20.010;2023-03-14T02:35:29;4.10;;;2.60;;
51174;SDS011;37240;50.104;20.010;2023-03-14T02:40:35;4.53;;;2.47;;
51174;SDS011;37240;50.104;20.010;2023-03-14T02:45:39;3.30;;;2.63;;
51174;SDS011;37240;50.104;20.010;2023-03-14T02:50:51;9.75;;;1.88;;
51174;SDS011;37240;50.104;20.010;2023-03-14T02:55:55;8.43;;;2.75;;
51174;SDS011;37240;50.104;20.010;2023-03-14T03:00:56;6.18;;;2.42;;
51174;SDS011;37240;50.104;20.010;2023-03-14T03:05:56;3.90;;;2.28;;
51174;SDS011;37240;50.104;20.010;2023-03-14T03:10:57;2.53;;;2.33;;
51174;SDS011;37240;50.104;20.010;2023-03-14T03:15:58;4.53;;;2.50;;
51174;SDS011;37240;50.104;20.010;2023-03-14T03:20:59;7.10;;;2.97;;
51174;SDS011;37240;50.104;20.010;2023-03-14T03:26:01;4.95;;;2.50;;
51174;SDS011;37240;50.104;20.010;2023-03-14T03:31:08;9.45;;;3.33;;
51174;SDS011;37240;50.104;20.010;2023-03-14T03:36:10;11.57;;;4.03;;
51174;SDS011;37240;50.104;20.010;2023-03-14T03:41:10;10.73;;;4.80;;
51174;SDS011;37240;50.104;20.010;2023-03-14T03:46:11;22.02;;;6.22;;
51174;SDS011;37240;50.104;20.010;2023-03-14T03:51:12;11.27;;;5.35;;
51174;SDS011;37240;50.104;20.010;2023-03-14T03:56:14;13.55;;;5.10;;
51174;SDS011;37240;50.104;20.010;2023-03-14T04:01:14;13.85;;;4.70;;
51174;SDS011;37240;50.104;20.010;2023-03-14T04:06:15;9.80;;;5.05;;
51174;SDS011;37240;50.104;20.010;2023-03-14T04:11:15;16.33;;;4.82;;
51174;SDS011;37240;50.104;20.010;2023-03-14T04:16:17;7.70;;;4.35;;
51174;SDS011;37240;50.104;20.010;2023-03-14T04:21:19;11.52;;;4.22;;
51174;SDS011;37240;50.104;20.010;2023-03-14T04:26:19;12.93;;;3.70;;
51174;SDS011;37240;50.104;20.010;2023-03-14T04:31:20;17.38;;;3.58;;
51174;SDS011;37240;50.104;20.010;2023-03-14T04:36:21;6.85;;;3.40;;
51174;SDS011;37240;50.104;20.010;2023-03-14T04:41:22;8.45;;;3.58;;
51174;SDS011;37240;50.104;20.010;2023-03-14T04:46:23;9.75;;;3.47;;
51174;SDS011;37240;50.104;20.010;2023-03-14T04:51:23;9.20;;;3.88;;
51174;SDS011;37240;50.104;20.010;2023-03-14T04:56:24;11.75;;;4.28;;
51174;SDS011;37240;50.104;20.010;2023-03-14T05:01:24;18.52;;;5.38;;
51174;SDS011;37240;50.104;20.010;2023-03-14T05:06:25;15.38;;;5.75;;
51174;SDS011;37240;50.104;20.010;2023-03-14T05:11:25;19.42;;;6.40;;
51174;SDS011;37240;50.104;20.010;2023-03-14T05:16:26;11.77;;;4.90;;
51174;SDS011;37240;50.104;20.010;2023-03-14T05:21:27;12.10;;;4.97;;
51174;SDS011;37240;50.104;20.010;2023-03-14T05:26:27;10.25;;;4.63;;
51174;SDS011;37240;50.104;20.010;2023-03-14T05:31:28;9.82;;;4.65;;
51174;SDS011;37240;50.104;20.010;2023-03-14T05:36:28;9.05;;;4.18;;
51174;SDS011;37240;50.104;20.010;2023-03-14T05:41:29;9.73;;;4.50;;
51174;SDS011;37240;50.104;20.010;2023-03-14T05:46:29;14.45;;;4.63;;
51174;SDS011;37240;50.104;20.010;2023-03-14T05:51:30;10.32;;;5.10;;
51174;SDS011;37240;50.104;20.010;2023-03-14T05:56:31;9.13;;;4.03;;
51174;SDS011;37240;50.104;20.010;2023-03-14T06:01:31;10.63;;;4.68;;
51174;SDS011;37240;50.104;20.010;2023-03-14T06:06:32;14.25;;;4.97;;
51174;SDS011;37240;50.104;20.010;2023-03-14T06:11:32;13.40;;;4.97;;
51174;SDS011;37240;50.104;20.010;2023-03-14T06:16:33;8.55;;;3.95;;
51174;SDS011;37240;50.104;20.010;2023-03-14T06:21:33;7.93;;;4.18;;
51174;SDS011;37240;50.104;20.010;2023-03-14T06:26:35;14.48;;;4.50;;
51174;SDS011;37240;50.104;20.010;2023-03-14T06:31:35;18.90;;;4.55;;
51174;SDS011;37240;50.104;20.010;2023-03-14T06:36:36;15.32;;;5.85;;
51174;SDS011;37240;50.104;20.010;2023-03-14T06:41:36;29.65;;;6.07;;
51174;SDS011;37240;50.104;20.010;2023-03-14T06:46:37;20.17;;;5.95;;
51174;SDS011;37240;50.104;20.010;2023-03-14T06:51:37;18.10;;;6.47;;
51174;SDS011;37240;50.104;20.010;2023-03-14T06:56:38;16.13;;;5.82;;
51174;SDS011;37240;50.104;20.010;2023-03-14T07:01:39;18.52;;;6.60;;
51174;SDS011;37240;50.104;20.010;2023-03-14T07:06:39;19.08;;;6.03;;
51174;SDS011;37240;50.104;20.010;2023-03-14T07:11:40;15.02;;;5.70;;
51174;SDS011;37240;50.104;20.010;2023-03-14T07:16:40;21.60;;;4.60;;
51174;SDS011;37240;50.104;20.010;2023-03-14T07:21:41;9.23;;;4.45;;
51174;SDS011;37240;50.104;20.010;2023-03-14T07:26:41;22.23;;;4.50;;
51174;SDS011;37240;50.104;20.010;2023-03-14T07:31:42;12.90;;;3.67;;
51174;SDS011;37240;50.104;20.010;2023-03-14T07:36:42;13.73;;;3.90;;
51174;SDS011;37240;50.104;20.010;2023-03-14T07:41:43;12.57;;;3.95;;
51174;SDS011;37240;50.104;20.010;2023-03-14T07:46:43;7.80;;;3.15;;
51174;SDS011;37240;50.104;20.010;2023-03-14T07:51:46;6.30;;;3.17;;
51174;SDS011;37240;50.104;20.010;2023-03-14T07:56:47;10.40;;;3.28;;
51174;SDS011;37240;50.104;20.010;2023-03-14T08:01:48;11.20;;;3.83;;
51174;SDS011;37240;50.104;20.010;2023-03-14T08:06:49;9.10;;;2.90;;
51174;SDS011;37240;50.104;20.010;2023-03-14T08:11:49;6.45;;;2.40;;
51174;SDS011;37240;50.104;20.010;2023-03-14T08:16:50;4.63;;;2.08;;
51174;SDS011;37240;50.104;20.010;2023-03-14T08:21:51;5.65;;;2.50;;
51174;SDS011;37240;50.104;20.010;2023-03-14T08:26:51;8.07;;;3.00;;
51174;SDS011;37240;50.104;20.010;2023-03-14T08:31:52;5.50;;;2.72;;
51174;SDS011;37240;50.104;20.010;2023-03-14T08:36:54;4.28;;;2.10;;
51174;SDS011;37240;50.104;20.010;2023-03-14T08:41:54;3.45;;;2.08;;
51174;SDS011;37240;50.104;20.010;2023-03-14T08:46:55;4.75;;;2.30;;
51174;SDS011;37240;50.104;20.010;2023-03-14T08:51:55;5.55;;;2.30;;
51174;SDS011;37240;50.104;20.010;2023-03-14T08:56:56;4.22;;;2.30;;
51174;SDS011;37240;50.104;20.010;2023-03-14T09:01:57;6.38;;;2.65;;
51174;SDS011;37240;50.104;20.010;2023-03-14T09:06:58;2.75;;;2.35;;
51174;SDS011;37240;50.104;20.010;2023-03-14T09:11:59;7.13;;;2.70;;
51174;SDS011;37240;50.104;20.010;2023-03-14T09:16:59;39.17;;;5.00;;
51174;SDS011;37240;50.104;20.010;2023-03-14T09:22:00;13.07;;;2.45;;
51174;SDS011;37240;50.104;20.010;2023-03-14T09:27:01;3.55;;;2.45;;
51174;SDS011;37240;50.104;20.010;2023-03-14T09:32:01;3.10;;;2.38;;
51174;SDS011;37240;50.104;20.010;2023-03-14T09:37:02;4.85;;;2.13;;
51174;SDS011;37240;50.104;20.010;2023-03-14T09:42:03;5.70;;;2.35;;
51174;SDS011;37240;50.104;20.010;2023-03-14T09:47:09;10.32;;;2.17;;
51174;SDS011;37240;50.104;20.010;2023-03-14T09:52:24;7.25;;;2.38;;
51174;SDS011;37240;50.104;20.010;2023-03-14T10:02:33;13.02;;;2.33;;
51174;SDS011;37240;50.104;20.010;2023-03-14T10:07:35;3.72;;;2.17;;
51174;SDS011;37240;50.104;20.010;2023-03-14T10:12:36;3.53;;;2.40;;
51174;SDS011;37240;50.104;20.010;2023-03-14T10:17:38;7.45;;;1.98;;
51174;SDS011;37240;50.104;20.010;2023-03-14T10:22:43;5.15;;;2.63;;
51174;SDS011;37240;50.104;20.010;2023-03-14T10:27:43;5.70;;;2.40;;
51174;SDS011;37240;50.104;20.010;2023-03-14T10:32:45;6.05;;;2.45;;
51174;SDS011;37240;50.104;20.010;2023-03-14T10:43:00;5.30;;;2.58;;
51174;SDS011;37240;50.104;20.010;2023-03-14T10:48:06;8.02;;;2.47;;
51174;SDS011;37240;50.104;20.010;2023-03-14T10:53:20;8.48;;;2.85;;
51174;SDS011;37240;50.104;20.010;2023-03-14T10:58:22;11.30;;;3.17;;
51174;SDS011;37240;50.104;20.010;2023-03-14T11:03:24;6.38;;;2.22;;
51174;SDS011;37240;50.104;20.010;2023-03-14T11:08:31;9.32;;;2.42;;
51174;SDS011;37240;50.104;20.010;2023-03-14T11:19:17;7.38;;;2.88;;
51174;SDS011;37240;50.104;20.010;2023-03-14T11:24:34;5.20;;;2.20;;
51174;SDS011;37240;50.104;20.010;2023-03-14T11:35:17;5.85;;;3.00;;
51174;SDS011;37240;50.104;20.010;2023-03-14T11:40:25;4.63;;;2.85;;
51174;SDS011;37240;50.104;20.010;2023-03-14T11:45:36;7.95;;;2.00;;
51174;SDS011;37240;50.104;20.010;2023-03-14T11:50:41;7.28;;;3.30;;
51174;SDS011;37240;50.104;20.010;2023-03-14T11:55:43;4.30;;;2.22;;
51174;SDS011;37240;50.104;20.010;2023-03-14T12:00:45;7.22;;;3.03;;
51174;SDS011;37240;50.104;20.010;2023-03-14T12:11:04;6.68;;;3.15;;
51174;SDS011;37240;50.104;20.010;2023-03-14T12:22:17;6.85;;;2.92;;
51174;SDS011;37240;50.104;20.010;2023-03-14T12:27:08;9.63;;;3.28;;
51174;SDS011;37240;50.104;20.010;2023-03-14T12:32:32;6.13;;;2.78;;
51174;SDS011;37240;50.104;20.010;2023-03-14T12:37:36;6.95;;;2.67;;
51174;SDS011;37240;50.104;20.010;2023-03-14T12:43:00;4.63;;;2.85;;
51174;SDS011;37240;50.104;20.010;2023-03-14T12:48:09;9.55;;;3.63;;
51174;SDS011;37240;50.104;20.010;2023-03-14T13:04:04;7.80;;;3.45;;
51174;SDS011;37240;50.104;20.010;2023-03-14T13:14:28;10.73;;;2.92;;
51174;SDS011;37240;50.104;20.010;2023-03-14T13:19:31;3.63;;;2.53;;
51174;SDS011;37240;50.104;20.010;2023-03-14T13:24:34;6.57;;;2.92;;
51174;SDS011;37240;50.104;20.010;2023-03-14T13:29:34;8.07;;;3.58;;
51174;SDS011;37240;50.104;20.010;2023-03-14T13:34:35;5.32;;;2.88;;
51174;SDS011;37240;50.104;20.010;2023-03-14T13:39:37;7.68;;;3.25;;
51174;SDS011;37240;50.104;20.010;2023-03-14T13:44:40;12.40;;;3.90;;
51174;SDS011;37240;50.104;20.010;2023-03-14T13:49:40;6.82;;;2.90;;
51174;SDS011;37240;50.104;20.010;2023-03-14T13:54:42;6.32;;;3.40;;
51174;SDS011;37240;50.104;20.010;2023-03-14T13:59:42;7.47;;;2.83;;
51174;SDS011;37240;50.104;20.010;2023-03-14T14:04:43;5.72;;;2.47;;
51174;SDS011;37240;50.104;20.010;2023-03-14T14:09:47;32.15;;;15.48;;
51174;SDS011;37240;50.104;20.010;2023-03-14T14:20:05;6.68;;;2.83;;
51174;SDS011;37240;50.104;20.010;2023-03-14T14:25:13;5.22;;;3.00;;
51174;SDS011;37240;50.104;20.010;2023-03-14T14:35:25;13.73;;;4.22;;
51174;SDS011;37240;50.104;20.010;2023-03-14T14:40:32;17.50;;;3.63;;
51174;SDS011;37240;50.104;20.010;2023-03-14T14:45:33;11.27;;;2.95;;
51174;SDS011;37240;50.104;20.010;2023-03-14T14:50:38;10.07;;;2.83;;
51174;SDS011;37240;50.104;20.010;2023-03-14T14:55:50;3.55;;;2.55;;
51174;SDS011;37240;50.104;20.010;2023-03-14T15:05:58;4.45;;;2.75;;
51174;SDS011;37240;50.104;20.010;2023-03-14T15:10:58;5.00;;;3.00;;
51174;SDS011;37240;50.104;20.010;2023-03-14T15:15:59;5.80;;;2.85;;
51174;SDS011;37240;50.104;20.010;2023-03-14T15:21:00;5.03;;;3.25;;
51174;SDS011;37240;50.104;20.010;2023-03-14T15:26:00;4.60;;;2.83;;
51174;SDS011;37240;50.104;20.010;2023-03-14T15:31:01;4.88;;;2.53;;
51174;SDS011;37240;50.104;20.010;2023-03-14T15:36:02;6.93;;;2.72;;
51174;SDS011;37240;50.104;20.010;2023-03-14T15:41:04;9.57;;;3.13;;
51174;SDS011;37240;50.104;20.010;2023-03-14T15:46:04;5.25;;;2.95;;
51174;SDS011;37240;50.104;20.010;2023-03-14T15:51:05;3.80;;;2.92;;
51174;SDS011;37240;50.104;20.010;2023-03-14T15:56:07;5.47;;;3.35;;
51174;SDS011;37240;50.104;20.010;2023-03-14T16:01:10;4.47;;;3.15;;
51174;SDS011;37240;50.104;20.010;2023-03-14T16:06:11;4.75;;;2.85;;
51174;SDS011;37240;50.104;20.010;2023-03-14T16:11:13;11.68;;;3.53;;
51174;SDS011;37240;50.104;20.010;2023-03-14T16:16:15;7.00;;;3.50;;
51174;SDS011;37240;50.104;20.010;2023-03-14T16:21:16;4.40;;;2.78;;
51174;SDS011;37240;50.104;20.010;2023-03-14T16:26:18;4.72;;;3.00;;
51174;SDS011;37240;50.104;20.010;2023-03-14T16:31:19;41.33;;;17.98;;
51174;SDS011;37240;50.104;20.010;2023-03-14T16:36:20;10.95;;;4.03;;
51174;SDS011;37240;50.104;20.010;2023-03-14T16:41:20;8.38;;;3.60;;
51174;SDS011;37240;50.104;20.010;2023-03-14T16:46:21;8.75;;;3.28;;
51174;SDS011;37240;50.104;20.010;2023-03-14T16:51:22;8.60;;;3.78;;
51174;SDS011;37240;50.104;20.010;2023-03-14T16:56:23;7.32;;;3.45;;
51174;SDS011;37240;50.104;20.010;2023-03-14T17:01:24;9.57;;;3.55;;
51174;SDS011;37240;50.104;20.010;2023-03-14T17:06:25;7.75;;;3.85;;
51174;SDS011;37240;50.104;20.010;2023-03-14T17:11:27;5.80;;;3.30;;
51174;SDS011;37240;50.104;20.010;2023-03-14T17:16:27;9.23;;;4.03;;
51174;SDS011;37240;50.104;20.010;2023-03-14T17:21:28;9.18;;;4.45;;
51174;SDS011;37240;50.104;20.010;2023-03-14T17:26:29;8.90;;;4.68;;
51174;SDS011;37240;50.104;20.010;2023-03-14T17:31:29;9.55;;;4.57;;
51174;SDS011;37240;50.104;20.010;2023-03-14T17:36:30;9.68;;;4.97;;
51174;SDS011;37240;50.104;20.010;2023-03-14T17:41:30;11.40;;;4.72;;
51174;SDS011;37240;50.104;20.010;2023-03-14T17:46:31;10.27;;;5.00;;
51174;SDS011;37240;50.104;20.010;2023-03-14T17:51:31;13.20;;;6.03;;
51174;SDS011;37240;50.104;20.010;2023-03-14T17:56:32;44.30;;;20.50;;
51174;SDS011;37240;50.104;20.010;2023-03-14T18:01:33;21.17;;;9.93;;
51174;SDS011;37240;50.104;20.010;2023-03-14T18:06:33;13.43;;;6.32;;
51174;SDS011;37240;50.104;20.010;2023-03-14T18:11:34;10.85;;;5.30;;
51174;SDS011;37240;50.104;20.010;2023-03-14T18:16:35;11.77;;;6.10;;
51174;SDS011;37240;50.104;20.010;2023-03-14T18:21:36;9.85;;;5.43;;
51174;SDS011;37240;50.104;20.010;2023-03-14T18:26:36;9.48;;;5.93;;
51174;SDS011;37240;50.104;20.010;2023-03-14T18:31:37;10.55;;;5.47;;
51174;SDS011;37240;50.104;20.010;2023-03-14T18:36:38;16.10;;;5.80;;
51174;SDS011;37240;50.104;20.010;2023-03-14T18:41:38;8.73;;;5.22;;
51174;SDS011;37240;50.104;20.010;2023-03-14T18:46:39;13.50;;;7.22;;
51174;SDS011;37240;50.104;20.010;2023-03-14T18:51:40;16.92;;;6.75;;
51174;SDS011;37240;50.104;20.010;2023-03-14T18:56:40;14.45;;;5.90;;
51174;SDS011;37240;50.104;20.010;2023-03-14T19:01:41;12.82;;;6.85;;
51174;SDS011;37240;50.104;20.010;2023-03-14T19:06:41;8.43;;;5.22;;
51174;SDS011;37240;50.104;20.010;2023-03-14T19:11:42;9.90;;;6.22;;
51174;SDS011;37240;50.104;20.010;2023-03-14T19:16:43;27.38;;;9.35;;
51174;SDS011;37240;50.104;20.010;2023-03-14T19:21:43;26.52;;;11.15;;
51174;SDS011;37240;50.104;20.010;2023-03-14T19:26:44;34.63;;;11.60;;
51174;SDS011;37240;50.104;20.010;2023-03-14T19:31:44;27.42;;;10.93;;
51174;SDS011;37240;50.104;20.010;2023-03-14T19:36:45;32.63;;;11.63;;
51174;SDS011;37240;50.104;20.010;2023-03-14T19:41:45;23.70;;;10.60;;
51174;SDS011;37240;50.104;20.010;2023-03-14T19:46:46;21.88;;;11.40;;
51174;SDS011;37240;50.104;20.010;2023-03-14T19:51:47;23.08;;;10.13;;
51174;SDS011;37240;50.104;20.010;2023-03-14T19:56:48;19.83;;;9.80;;
51174;SDS011;37240;50.104;20.010;2023-03-14T20:01:49;23.00;;;9.40;;
51174;SDS011;37240;50.104;20.010;2023-03-14T20:06:50;18.27;;;8.98;;
51174;SDS011;37240;50.104;20.010;2023-03-14T20:11:51;16.35;;;8.10;;
51174;SDS011;37240;50.104;20.010;2023-03-14T20:16:52;22.08;;;8.55;;
51174;SDS011;37240;50.104;20.010;2023-03-14T20:21:52;14.35;;;7.78;;
51174;SDS011;37240;50.104;20.010;2023-03-14T20:26:53;24.45;;;8.90;;
51174;SDS011;37240;50.104;20.010;2023-03-14T20:31:53;15.68;;;7.95;;
51174;SDS011;37240;50.104;20.010;2023-03-14T20:36:54;21.90;;;8.98;;
51174;SDS011;37240;50.104;20.010;2023-03-14T20:41:56;25.55;;;10.77;;
51174;SDS011;37240;50.104;20.010;2023-03-14T20:46:56;18.85;;;10.15;;
51174;SDS011;37240;50.104;20.010;2023-03-14T20:51:57;21.30;;;10.18;;
51174;SDS011;37240;50.104;20.010;2023-03-14T20:56:57;26.48;;;11.50;;
51174;SDS011;37240;50.104;20.010;2023-03-14T21:01:58;25.33;;;11.32;;
51174;SDS011;37240;50.104;20.010;2023-03-14T21:06:58;21.88;;;10.65;;
51174;SDS011;37240;50.104;20.010;2023-03-14T21:11:59;23.42;;;10.63;;
51174;SDS011;37240;50.104;20.010;2023-03-14T21:16:59;24.10;;;10.73;;
51174;SDS011;37240;50.104;20.010;2023-03-14T21:22:01;24.45;;;9.80;;
51174;SDS011;37240;50.104;20.010;2023-03-14T21:27:03;21.75;;;9.80;;
51174;SDS011;37240;50.104;20.010;2023-03-14T21:32:04;20.50;;;9.57;;
51174;SDS011;37240;50.104;20.010;2023-03-14T21:37:04;19.13;;;9.77;;
51174;SDS011;37240;50.104;20.010;2023-03-14T21:42:05;18.38;;;9.80;;
51174;SDS011;37240;50.104;20.010;2023-03-14T21:47:06;22.25;;;9.20;;
51174;SDS011;37240;50.104;20.010;2023-03-14T21:52:09;13.65;;;8.30;;
51174;SDS011;37240;50.104;20.010;2023-03-14T21:57:11;22.98;;;9.18;;
51174;SDS011;37240;50.104;20.010;2023-03-14T22:02:15;18.88;;;8.43;;
51174;SDS011;37240;50.104;20.010;2023-03-14T22:07:17;15.63;;;8.40;;
51174;SDS011;37240;50.104;20.010;2023-03-14T22:12:18;17.77;;;7.90;;
51174;SDS011;37240;50.104;20.010;2023-03-14T22:17:18;10.27;;;6.45;;
51174;SDS011;37240;50.104;20.010;2023-03-14T22:22:19;16.63;;;4.60;;
51174;SDS011;37240;50.104;20.010;2023-03-14T22:27:19;7.78;;;4.22;;
51174;SDS011;37240;50.104;20.010;2023-03-14T22:32:20;9.05;;;4.22;;
51174;SDS011;37240;50.104;20.010;2023-03-14T22:37:21;8.85;;;3.33;;
51174;SDS011;37240;50.104;20.010;2023-03-14T22:42:21;8.38;;;3.00;;
51174;SDS011;37240;50.104;20.010;2023-03-14T22:47:22;6.75;;;3.00;;
51174;SDS011;37240;50.104;20.010;2023-03-14T22:52:22;6.40;;;3.47;;
51174;SDS011;37240;50.104;20.010;2023-03-14T22:57:23;4.22;;;2.80;;
51174;SDS011;37240;50.104;20.010;2023-03-14T23:02:23;5.95;;;2.55;;
51174;SDS011;37240;50.104;20.010;2023-03-14T23:07:24;2.95;;;2.33;;
51174;SDS011;37240;50.104;20.010;2023-03-14T23:12:25;4.00;;;2.55;;
51174;SDS011;37240;50.104;20.010;2023-03-14T23:17:25;5.60;;;2.28;;
51174;SDS011;37240;50.104;20.010;2023-03-14T23:22:26;3.67;;;2.28;;
51174;SDS011;37240;50.104;20.010;2023-03-14T23:27:27;9.55;;;2.67;;
51174;SDS011;37240;50.104;20.010;2023-03-14T23:32:27;3.78;;;2.25;;
51174;SDS011;37240;50.104;20.010;2023-03-14T23:37:28;2.25;;;1.95;;
51174;SDS011;37240;50.104;20.010;2023-03-14T23:42:28;2.75;;;2.40;;
51174;SDS011;37240;50.104;20.010;2023-03-14T23:47:29;5.20;;;2.67;;
51174;SDS011;37240;50.104;20.010;2023-03-14T23:52:30;6.93;;;3.03;;
51174;SDS011;37240;50.104;20.010;2023-03-14T23:57:30;7.85;;;4.55;;
